createdAt,value
2023-05-10T00:05:21.808Z,3.50
2023-05-10T00:06:08.924Z,3.40
2023-05-10T00:07:08.881Z,3.40
2023-05-10T00:08:09.329Z,3.30
2023-05-10T00:09:09.383Z,3.40
2023-05-10T00:10:09.172Z,3.60
2023-05-10T00:17:00.610Z,3.30
2023-05-10T00:18:10.333Z,3.10
2023-05-10T00:19:00.631Z,3.80
2023-05-10T00:20:08.555Z,3.80
2023-05-10T00:21:10.208Z,3.10
2023-05-10T00:21:58.104Z,3.60
2023-05-10T00:31:31.387Z,3.40
2023-05-10T00:34:45.590Z,3.70
2023-05-10T01:10:54.135Z,3.40
2023-05-10T01:36:47.305Z,3.50
2023-05-10T01:37:41.447Z,3.50
2023-05-10T01:38:38.835Z,3.50
2023-05-10T01:53:21.736Z,3.90
2023-05-10T01:56:06.442Z,3.80
2023-05-10T02:05:39.103Z,4.00
2023-05-10T02:20:05.135Z,3.70
2023-05-10T02:22:20.026Z,3.90
2023-05-10T02:38:34.578Z,3.70
2023-05-10T02:42:06.901Z,3.70
2023-05-10T03:23:06.733Z,3.70
2023-05-10T04:07:19.966Z,3.60
2023-05-10T04:13:27.932Z,3.90
2023-05-10T04:14:25.239Z,4.00
2023-05-10T04:18:24.694Z,3.70
2023-05-10T04:29:52.686Z,4.10
2023-05-10T04:30:38.989Z,4.10
2023-05-10T05:08:49.481Z,4.10
2023-05-10T05:09:49.364Z,4.00
2023-05-10T05:16:05.058Z,3.80
2023-05-10T05:31:04.847Z,3.60
2023-05-10T05:31:55.402Z,3.70
2023-05-10T05:49:55.198Z,4.00
2023-05-10T05:58:09.523Z,3.80
2023-05-10T05:58:55.517Z,3.60
2023-05-10T05:59:55.490Z,3.70
2023-05-10T06:00:55.255Z,3.90
2023-05-10T06:01:55.360Z,3.70
2023-05-10T06:02:55.318Z,3.50
2023-05-10T06:03:55.453Z,3.90
2023-05-10T06:04:55.150Z,3.70
2023-05-10T06:05:55.393Z,4.10
2023-05-10T06:06:55.137Z,4.20
2023-05-10T06:34:32.960Z,3.90
2023-05-10T06:35:32.434Z,3.90
2023-05-10T06:36:31.426Z,3.80
2023-05-10T06:37:31.665Z,4.10
2023-05-10T06:38:31.365Z,4.10
2023-05-10T06:39:31.041Z,4.10
2023-05-10T06:40:31.507Z,4.50
2023-05-10T06:41:31.362Z,4.20
2023-05-10T06:42:31.235Z,4.00
2023-05-10T06:43:31.240Z,4.20
2023-05-10T06:44:32.103Z,4.70
2023-05-10T06:45:30.989Z,4.20
2023-05-10T06:46:31.020Z,4.10
2023-05-10T06:47:31.142Z,4.10
2023-05-10T06:48:31.078Z,3.90
2023-05-10T06:49:31.170Z,3.90
2023-05-10T06:50:30.943Z,4.20
2023-05-10T06:51:31.030Z,4.80
2023-05-10T06:52:31.115Z,4.00
2023-05-10T06:53:31.921Z,4.50
2023-05-10T06:54:30.936Z,3.70
2023-05-10T06:55:30.875Z,4.20
2023-05-10T06:56:30.885Z,3.80
2023-05-10T06:57:32.187Z,4.00
2023-05-10T06:58:30.875Z,3.80
2023-05-10T06:59:30.929Z,3.90
2023-05-10T07:00:31.030Z,3.70
2023-05-10T07:08:21.260Z,3.70
2023-05-10T07:09:09.109Z,3.70
2023-05-10T07:10:09.216Z,3.80
2023-05-10T07:11:08.994Z,3.80
2023-05-10T07:12:11.127Z,3.70
2023-05-10T07:13:09.013Z,4.10
2023-05-10T07:14:09.210Z,3.70
2023-05-10T07:15:08.897Z,3.60
2023-05-10T07:16:09.191Z,3.90
2023-05-10T07:17:09.111Z,3.80
2023-05-10T07:18:09.248Z,4.00
2023-05-10T07:19:09.010Z,3.60
2023-05-10T07:20:08.834Z,3.90
2023-05-10T07:21:08.963Z,4.50
2023-05-10T07:22:08.918Z,3.80
2023-05-10T07:23:08.802Z,3.50
2023-05-10T07:24:08.812Z,4.10
2023-05-10T07:25:08.869Z,4.00
2023-05-10T07:26:08.793Z,3.80
2023-05-10T07:27:08.931Z,4.10
2023-05-10T07:28:08.729Z,4.20
2023-05-10T07:29:08.779Z,4.10
2023-05-10T07:30:08.640Z,3.70
2023-05-10T07:31:08.840Z,3.90
2023-05-10T07:32:08.649Z,3.60
2023-05-10T07:33:08.726Z,3.90
2023-05-10T07:34:08.632Z,3.50
2023-05-10T07:35:08.600Z,3.80
2023-05-10T07:42:28.599Z,3.80
2023-05-10T07:43:27.217Z,3.70
2023-05-10T07:45:49.328Z,4.20
2023-05-10T07:46:49.306Z,4.00
2023-05-10T07:47:49.206Z,4.70
2023-05-10T07:48:49.453Z,3.50
2023-05-10T07:49:49.267Z,4.10
2023-05-10T07:50:49.059Z,3.80
2023-05-10T07:51:49.225Z,4.10
2023-05-10T07:52:48.985Z,4.10
2023-05-10T07:53:49.279Z,4.20
2023-05-10T07:54:48.943Z,4.30
2023-05-10T07:55:49.034Z,3.80
2023-05-10T07:57:05.319Z,4.10
2023-05-10T07:57:49.706Z,3.90
2023-05-10T07:58:49.081Z,3.80
2023-05-10T07:59:49.200Z,4.10
2023-05-10T08:00:48.928Z,4.00
2023-05-10T08:01:48.914Z,3.80
2023-05-10T08:02:49.149Z,4.10
2023-05-10T08:03:49.001Z,4.30
2023-05-10T08:04:49.120Z,3.90
2023-05-10T08:05:48.781Z,3.90
2023-05-10T08:06:48.830Z,3.70
2023-05-10T08:07:49.140Z,3.70
2023-05-10T08:09:00.432Z,4.00
2023-05-10T08:09:48.828Z,4.10
2023-05-10T08:10:51.476Z,3.80
2023-05-10T08:11:48.886Z,3.80
2023-05-10T08:16:08.295Z,3.90
2023-05-10T08:17:20.567Z,3.90
2023-05-10T08:18:07.750Z,3.90
2023-05-10T08:19:07.597Z,3.90
2023-05-10T08:20:08.590Z,3.90
2023-05-10T08:21:07.725Z,4.20
2023-05-10T08:34:20.307Z,4.00
2023-05-10T08:35:20.024Z,4.10
2023-05-10T08:36:19.542Z,4.10
2023-05-10T08:37:18.702Z,4.10
2023-05-10T08:38:18.573Z,4.00
2023-05-10T08:43:44.575Z,4.20
2023-05-10T08:44:17.147Z,4.30
2023-05-10T08:45:17.314Z,3.90
2023-05-10T08:46:16.886Z,3.90
2023-05-10T08:47:24.551Z,4.10
2023-05-10T08:48:16.525Z,4.10
2023-05-10T08:49:16.549Z,4.20
2023-05-10T08:50:16.477Z,3.90
2023-05-10T08:51:16.659Z,4.30
2023-05-10T08:52:16.430Z,4.10
2023-05-10T08:53:16.390Z,4.00
2023-05-10T08:54:16.554Z,4.00
2023-05-10T08:55:16.620Z,4.10
2023-05-10T08:56:16.483Z,4.30
2023-05-10T08:57:16.396Z,4.30
2023-05-10T08:58:16.414Z,4.70
2023-05-10T08:59:17.538Z,4.40
2023-05-10T09:00:16.442Z,5.20
2023-05-10T09:01:17.196Z,4.50
2023-05-10T09:02:18.612Z,4.20
2023-05-10T09:03:16.674Z,4.10
2023-05-10T09:04:16.704Z,4.10
2023-05-10T09:05:16.607Z,3.80
2023-05-10T09:06:16.261Z,4.40
2023-05-10T09:07:16.325Z,4.60
2023-05-10T09:08:16.416Z,4.00
2023-05-10T09:09:17.094Z,4.10
2023-05-10T09:10:16.305Z,4.30
2023-05-10T09:11:16.406Z,4.30
2023-05-10T09:12:16.112Z,4.10
2023-05-10T09:13:16.226Z,4.50
2023-05-10T09:14:16.250Z,3.80
2023-05-10T09:15:16.296Z,4.10
2023-05-10T09:16:21.611Z,4.20
2023-05-10T09:17:17.464Z,4.50
2023-05-10T09:18:16.241Z,4.10
2023-05-10T09:19:16.072Z,4.10
2023-05-10T09:20:16.074Z,4.40
2023-05-10T09:21:16.182Z,4.10
2023-05-10T09:22:16.066Z,4.40
2023-05-10T09:23:16.056Z,4.20
2023-05-10T09:24:16.402Z,3.60
2023-05-10T09:25:16.405Z,4.20
2023-05-10T09:26:16.131Z,4.30
2023-05-10T09:27:16.538Z,4.20
2023-05-10T09:28:15.965Z,4.50
2023-05-10T09:29:17.537Z,4.30
2023-05-10T09:30:15.906Z,4.30
2023-05-10T09:31:15.850Z,4.50
2023-05-10T09:32:15.860Z,4.40
2023-05-10T09:33:15.910Z,4.30
2023-05-10T09:34:15.910Z,4.30
2023-05-10T09:35:16.141Z,4.40
2023-05-10T09:36:15.937Z,4.20
2023-05-10T09:37:16.146Z,3.90
2023-05-10T09:38:16.363Z,4.40
2023-05-10T09:39:15.818Z,4.20
2023-05-10T09:40:16.468Z,4.60
2023-05-10T09:41:15.721Z,4.60
2023-05-10T09:42:15.729Z,4.80
2023-05-10T09:43:15.720Z,4.30
2023-05-10T09:44:15.727Z,4.80
2023-05-10T09:45:16.032Z,3.90
2023-05-10T09:46:15.739Z,3.90
2023-05-10T09:47:15.769Z,4.30
2023-05-10T09:48:15.656Z,4.30
2023-05-10T09:49:15.592Z,4.30
2023-05-10T09:50:16.477Z,4.20
2023-05-10T09:51:15.985Z,4.40
2023-05-10T09:52:16.175Z,4.60
2023-05-10T09:53:15.531Z,4.50
2023-05-10T09:54:15.646Z,4.10
2023-05-10T09:55:16.143Z,4.20
2023-05-10T09:56:15.720Z,5.10
2023-05-10T09:57:15.665Z,4.20
2023-05-10T09:58:15.767Z,4.60
2023-05-10T09:59:15.616Z,4.20
2023-05-10T10:00:15.607Z,4.90
2023-05-10T10:01:15.541Z,4.80
2023-05-10T10:02:16.010Z,4.90
2023-05-10T10:03:16.586Z,4.60
2023-05-10T10:04:15.447Z,5.10
2023-05-10T10:05:15.821Z,5.10
2023-05-10T10:06:26.353Z,5.00
2023-05-10T10:07:16.681Z,5.00
2023-05-10T10:08:15.393Z,5.40
2023-05-10T10:09:15.366Z,5.30
2023-05-10T10:10:16.011Z,5.40
2023-05-10T10:11:15.361Z,5.30
2023-05-10T10:12:16.410Z,5.40
2023-05-10T10:13:15.452Z,5.80
2023-05-10T10:14:15.580Z,6.30
2023-05-10T10:15:23.813Z,7.60
2023-05-10T10:16:15.399Z,6.90
2023-05-10T18:07:08.284Z,3.50
2023-05-10T18:08:08.731Z,3.50
2023-05-10T18:09:08.438Z,3.60
2023-05-10T18:10:10.208Z,3.80
2023-05-10T18:11:08.168Z,3.20
2023-05-10T18:12:10.045Z,3.70
2023-05-10T18:13:08.915Z,3.70
2023-05-10T18:14:08.248Z,4.00
2023-05-10T18:15:08.241Z,3.70
2023-05-10T18:16:08.604Z,3.30
2023-05-10T18:17:08.305Z,3.70
2023-05-10T18:18:08.101Z,4.00
2023-05-10T18:19:08.084Z,3.70
2023-05-10T18:20:08.047Z,3.90
2023-05-10T18:21:08.043Z,3.90
2023-05-10T18:22:10.627Z,3.60
2023-05-10T18:23:08.019Z,3.90
2023-05-10T18:24:08.098Z,3.80
2023-05-10T18:25:08.069Z,3.70
2023-05-10T18:26:08.028Z,3.80
2023-05-10T18:27:08.044Z,3.30
2023-05-10T18:28:08.922Z,3.40
2023-05-10T18:29:08.121Z,3.60
2023-05-10T18:30:07.822Z,3.90
2023-05-10T18:31:07.955Z,3.70
2023-05-10T18:32:08.416Z,3.90
2023-05-10T18:33:08.357Z,5.10
2023-05-10T18:34:07.926Z,5.00
2023-05-10T18:35:08.124Z,5.80
2023-05-10T18:36:07.851Z,6.10
2023-05-10T18:37:08.110Z,5.80
2023-05-10T18:38:08.608Z,6.10
2023-05-10T18:39:07.870Z,7.10
2023-05-10T18:40:07.801Z,7.50
2023-05-10T18:41:07.967Z,7.90
2023-05-10T18:42:07.745Z,7.30
2023-05-10T18:43:07.874Z,7.20
2023-05-10T18:44:07.695Z,7.90
2023-05-10T18:45:07.648Z,8.10
2023-05-10T18:46:07.852Z,8.30
2023-05-10T18:47:07.947Z,7.20
2023-05-10T18:48:07.810Z,7.70
2023-05-10T18:49:07.612Z,7.20
2023-05-10T18:50:07.588Z,7.40
2023-05-10T18:51:07.604Z,7.80
2023-05-10T18:52:07.572Z,6.10
2023-05-10T18:53:07.529Z,6.70
2023-05-10T18:54:07.676Z,6.60
2023-05-10T18:55:07.595Z,6.60
2023-05-10T18:56:07.559Z,7.10
2023-05-10T18:57:07.587Z,6.70
2023-05-10T18:58:07.455Z,7.10
2023-05-10T18:59:07.454Z,6.50
2023-05-10T19:00:07.825Z,6.50
2023-05-10T19:01:07.676Z,6.20
2023-05-10T19:02:07.456Z,6.50
2023-05-10T19:03:07.551Z,6.00
2023-05-10T19:04:07.467Z,6.10
2023-05-10T19:05:07.354Z,5.90
2023-05-10T19:06:07.445Z,5.40
2023-05-10T19:07:07.427Z,5.80
2023-05-10T19:08:07.379Z,6.40
2023-05-10T19:09:07.302Z,5.70
2023-05-10T19:10:07.437Z,5.90
2023-05-10T19:11:07.572Z,6.30
2023-05-10T19:12:07.312Z,5.70
2023-05-10T19:13:07.429Z,7.10
2023-05-10T19:14:11.187Z,6.30
2023-05-10T19:15:07.247Z,5.30
2023-05-10T19:16:07.390Z,5.70
2023-05-10T19:17:07.715Z,5.60
2023-05-10T19:18:07.948Z,4.90
2023-05-10T19:19:07.947Z,5.30
2023-05-10T19:20:07.813Z,5.70
2023-05-10T19:21:08.051Z,5.00
2023-05-10T19:22:07.900Z,5.70
2023-05-10T19:23:10.138Z,5.60
2023-05-10T19:24:07.266Z,5.40
2023-05-10T19:25:07.200Z,6.40
2023-05-10T19:26:07.447Z,5.40
2023-05-10T19:27:07.023Z,5.30
2023-05-10T19:28:08.832Z,6.00
2023-05-10T19:29:07.072Z,6.10
2023-05-10T19:30:07.143Z,5.80
2023-05-10T19:31:07.692Z,6.00
2023-05-10T19:32:07.266Z,6.20
2023-05-10T19:33:07.517Z,6.30
2023-05-10T19:34:08.433Z,6.70
2023-05-10T19:35:07.034Z,7.00
2023-05-10T19:36:07.293Z,6.80
2023-05-10T19:37:07.002Z,7.20
2023-05-10T19:38:07.020Z,7.00
2023-05-10T19:39:07.069Z,8.00
2023-05-10T19:40:06.872Z,7.70
2023-05-10T19:41:07.702Z,8.80
2023-05-10T19:42:06.908Z,7.60
2023-05-10T19:43:06.863Z,8.10
2023-05-10T19:44:06.927Z,8.40
2023-05-10T19:45:06.875Z,8.80
2023-05-10T19:46:06.798Z,9.70
2023-05-10T19:47:06.916Z,9.70
2023-05-10T19:48:07.284Z,9.40
2023-05-10T19:49:06.807Z,9.30
2023-05-10T19:50:06.751Z,11.50
2023-05-10T19:51:10.008Z,10.40
2023-05-10T19:52:06.847Z,10.70
2023-05-10T19:53:06.729Z,10.80
2023-05-10T19:54:06.736Z,10.90
2023-05-10T19:55:06.761Z,10.50
2023-05-10T19:56:06.823Z,10.30
2023-05-10T19:57:06.703Z,10.50
2023-05-10T19:58:06.773Z,11.20
2023-05-10T19:59:06.647Z,10.10
2023-05-10T20:00:10.904Z,10.10
2023-05-10T20:01:08.244Z,9.70
2023-05-10T20:02:07.240Z,8.60
2023-05-10T20:03:14.097Z,9.00
2023-05-10T20:04:12.189Z,9.70
2023-05-10T20:05:12.026Z,8.40
2023-05-10T20:06:06.711Z,8.80
2023-05-10T20:07:07.920Z,8.80
2023-05-10T20:08:08.484Z,8.20
2023-05-10T20:09:10.986Z,9.00
2023-05-10T20:10:06.437Z,8.00
2023-05-10T20:11:06.478Z,9.20
2023-05-10T20:12:06.384Z,8.40
2023-05-10T20:13:06.607Z,8.40
2023-05-10T20:14:07.125Z,9.70
2023-05-10T20:15:06.451Z,8.20
2023-05-10T20:16:06.607Z,9.30
2023-05-10T20:17:07.044Z,8.50
2023-05-10T20:18:11.690Z,8.90
2023-05-10T20:19:08.224Z,8.00
2023-05-10T20:20:06.394Z,8.00
2023-05-10T20:21:06.845Z,8.30
2023-05-10T20:22:06.446Z,8.50
2023-05-10T20:23:06.314Z,8.10
2023-05-10T20:24:07.739Z,8.80
2023-05-10T20:25:06.490Z,8.40
2023-05-10T20:26:06.383Z,9.10
2023-05-10T20:27:07.055Z,8.10
2023-05-10T20:28:11.327Z,8.60
2023-05-10T20:29:06.269Z,8.90
2023-05-10T20:30:06.652Z,8.20
2023-05-10T20:31:06.378Z,7.50
2023-05-10T20:32:06.188Z,8.00
2023-05-10T20:33:06.408Z,7.70
2023-05-10T20:34:08.811Z,7.20
2023-05-10T20:35:06.404Z,7.60
2023-05-10T20:36:06.208Z,7.20
2023-05-10T20:37:21.521Z,7.70
2023-05-10T21:06:09.852Z,8.60
2023-05-10T21:07:08.369Z,8.80
2023-05-10T21:08:08.472Z,9.80
2023-05-10T21:09:08.390Z,10.30
2023-05-10T21:10:08.366Z,8.60
2023-05-10T21:11:08.362Z,9.10
2023-05-10T21:12:08.389Z,9.60
2023-05-10T21:13:08.228Z,9.20
2023-05-10T21:14:08.221Z,9.70
2023-05-10T21:15:08.280Z,10.70
2023-05-10T21:16:08.224Z,9.80
2023-05-10T21:17:08.177Z,9.90
2023-05-10T21:18:08.406Z,11.60
2023-05-10T21:19:08.384Z,10.80
2023-05-10T21:20:08.141Z,10.40
2023-05-10T21:21:08.161Z,11.10
2023-05-10T21:22:08.262Z,11.10
2023-05-10T21:23:08.135Z,12.60
2023-05-10T21:24:08.154Z,11.10
2023-05-10T21:25:08.072Z,11.40
2023-05-10T21:26:08.089Z,10.80
2023-05-10T21:27:08.057Z,10.80
2023-05-10T21:28:08.150Z,10.90
2023-05-10T21:29:08.026Z,11.50
2023-05-10T21:30:08.080Z,11.60
2023-05-10T21:31:08.133Z,11.40
2023-05-10T21:32:08.023Z,10.10
2023-05-10T21:33:08.077Z,11.30
2023-05-10T21:34:08.028Z,10.30
2023-05-10T21:35:07.970Z,10.90
2023-05-10T21:36:08.063Z,11.30
2023-05-10T21:37:08.087Z,11.50
2023-05-10T21:38:07.904Z,11.20
2023-05-10T21:39:07.868Z,11.60
2023-05-10T21:40:08.147Z,12.40
2023-05-10T21:41:07.871Z,13.10
2023-05-10T21:42:07.887Z,12.40
2023-05-10T21:43:07.857Z,12.70
2023-05-10T21:44:07.794Z,12.00
2023-05-10T21:45:08.136Z,13.60
2023-05-10T21:46:07.828Z,12.40
2023-05-10T21:47:07.841Z,14.70
2023-05-10T21:48:07.940Z,11.60
2023-05-10T21:49:07.746Z,14.60
2023-05-10T21:50:08.535Z,13.50
2023-05-10T21:51:07.827Z,12.30
2023-05-10T21:52:07.857Z,13.20
2023-05-10T21:53:07.730Z,12.80
2023-05-10T21:54:08.709Z,12.30
2023-05-10T21:55:07.749Z,13.00
2023-05-10T21:56:07.629Z,12.50
2023-05-10T21:57:07.682Z,12.70
2023-05-10T21:58:07.665Z,13.10
2023-05-10T21:59:07.644Z,12.30
2023-05-10T22:00:07.622Z,14.10
2023-05-10T22:01:07.669Z,13.00
2023-05-10T22:02:07.581Z,15.30
2023-05-10T22:03:07.709Z,12.30
2023-05-10T22:04:07.588Z,12.00
2023-05-10T22:05:07.537Z,12.50
2023-05-10T22:06:07.516Z,12.70
2023-05-10T22:07:07.628Z,13.10
2023-05-10T22:08:08.460Z,13.00
2023-05-10T22:09:07.480Z,14.80
2023-05-10T22:10:07.502Z,13.80
2023-05-10T22:11:07.479Z,15.90
2023-05-10T22:12:07.632Z,15.80
2023-05-10T22:13:07.406Z,15.70
2023-05-10T22:14:07.395Z,15.30
2023-05-10T22:15:59.691Z,14.80
2023-05-10T22:16:59.596Z,15.00
2023-05-10T22:17:59.388Z,16.80
2023-05-10T22:18:59.488Z,18.30
2023-05-10T22:19:59.342Z,16.30
2023-05-10T22:20:59.333Z,17.90
2023-05-10T22:21:59.322Z,18.50
2023-05-10T22:22:59.334Z,19.10
2023-05-10T22:23:59.995Z,18.20
2023-05-10T22:24:59.287Z,21.20
2023-05-10T22:25:59.287Z,20.80
2023-05-10T22:26:59.301Z,20.00
2023-05-10T22:27:59.307Z,19.70
2023-05-10T22:28:59.261Z,19.50
2023-05-10T22:29:59.235Z,22.80
2023-05-10T22:30:59.226Z,20.60
2023-05-10T22:31:59.377Z,20.80
2023-05-10T22:32:59.624Z,23.90
2023-05-10T22:33:59.256Z,21.60
2023-05-10T22:34:59.395Z,22.80
2023-05-10T22:35:59.165Z,23.90
2023-05-10T22:36:59.130Z,24.30
2023-05-10T22:37:59.341Z,22.80
2023-05-10T22:38:59.385Z,22.30
2023-05-10T22:39:59.536Z,22.40
2023-05-10T22:40:59.227Z,21.10
2023-05-10T22:41:59.165Z,20.10
2023-05-10T22:42:59.046Z,21.80
2023-05-10T22:43:59.164Z,23.00
2023-05-10T22:44:59.019Z,20.00
2023-05-10T22:45:59.135Z,20.40
2023-05-10T22:46:59.148Z,19.50
2023-05-10T22:47:59.061Z,20.20
2023-05-10T22:48:59.160Z,20.40
2023-05-10T22:49:59.372Z,17.70
2023-05-10T22:50:58.934Z,19.10
2023-05-10T22:51:58.989Z,18.50
2023-05-10T22:52:59.011Z,19.80
2023-05-10T22:53:59.001Z,19.60
2023-05-10T22:54:58.948Z,19.10
2023-05-10T22:55:58.873Z,17.10
2023-05-10T22:56:58.930Z,17.70
2023-05-10T22:57:58.888Z,16.70
2023-05-10T22:58:58.960Z,17.20
2023-05-10T22:59:58.809Z,18.90
2023-05-10T23:00:59.716Z,17.90
2023-05-10T23:01:58.781Z,17.20
2023-05-10T23:02:58.868Z,19.20
2023-05-10T23:03:58.745Z,17.80
2023-05-10T23:04:58.888Z,19.30
2023-05-10T23:05:58.945Z,20.00
2023-05-10T23:06:59.203Z,21.20
2023-05-10T23:07:58.753Z,20.10
2023-05-10T23:08:58.727Z,21.40
2023-05-10T23:09:58.627Z,23.40
2023-05-10T23:10:58.826Z,22.00
2023-05-10T23:11:58.697Z,23.70
2023-05-10T23:12:58.755Z,22.90
2023-05-10T23:13:59.494Z,21.50
2023-05-10T23:14:58.607Z,25.60
2023-05-10T23:15:58.622Z,24.90
2023-05-10T23:16:58.551Z,23.10
2023-05-10T23:17:58.546Z,26.40
2023-05-10T23:18:58.607Z,24.30
2023-05-10T23:19:58.501Z,23.70
2023-05-10T23:20:58.531Z,22.00
2023-05-10T23:21:58.514Z,25.70
2023-05-10T23:22:58.502Z,26.10
2023-05-10T23:23:59.340Z,26.30
2023-05-10T23:24:58.481Z,25.50
2023-05-10T23:25:58.475Z,24.00
2023-05-10T23:26:58.405Z,20.90
2023-05-10T23:27:58.386Z,23.70
2023-05-10T23:28:58.369Z,22.80
2023-05-10T23:29:58.399Z,23.30
2023-05-10T23:30:58.336Z,23.00
2023-05-10T23:31:58.396Z,22.70
2023-05-10T23:32:58.619Z,21.70
2023-05-10T23:33:59.058Z,23.00
2023-05-10T23:34:58.327Z,23.00
2023-05-10T23:35:59.134Z,23.70
2023-05-10T23:36:58.332Z,20.80
2023-05-10T23:37:58.318Z,19.30
2023-05-10T23:38:59.100Z,23.10
2023-05-10T23:39:58.242Z,19.10
2023-05-10T23:40:59.223Z,20.10
2023-05-10T23:41:58.227Z,21.00
2023-05-10T23:42:58.174Z,18.90
2023-05-10T23:43:58.159Z,20.30
2023-05-10T23:44:59.116Z,19.30
2023-05-10T23:45:58.994Z,20.00
2023-05-10T23:46:58.121Z,17.30
2023-05-10T23:47:58.181Z,18.80
2023-05-10T23:48:58.091Z,19.10
2023-05-10T23:49:58.073Z,18.80
2023-05-10T23:50:58.489Z,18.30
2023-05-10T23:51:58.051Z,19.40
2023-05-10T23:52:58.500Z,17.80
2023-05-10T23:53:58.077Z,19.30
2023-05-10T23:54:58.468Z,18.80
2023-05-10T23:55:58.022Z,20.30
2023-05-10T23:56:57.987Z,21.40
2023-05-10T23:57:57.981Z,20.90
2023-05-10T23:58:58.052Z,19.10
2023-05-10T23:59:57.975Z,18.50
